createdAt,value
2017-10-09T00:01:55.683Z,3.70
2017-10-09T00:04:24.241Z,2.13
2017-10-09T00:06:52.669Z,2.50
2017-10-09T00:09:21.912Z,1.37
2017-10-09T00:11:50.336Z,2.67
2017-10-09T00:14:18.788Z,3.17
2017-10-09T00:16:47.312Z,1.77
2017-10-09T00:19:16.524Z,0.90
2017-10-09T00:21:45.725Z,2.97
2017-10-09T00:24:14.937Z,1.00
2017-10-09T00:26:44.134Z,4.20
2017-10-09T00:29:13.349Z,0.80
2017-10-09T00:31:42.690Z,2.70
2017-10-09T00:34:11.146Z,2.53
2017-10-09T00:36:39.581Z,7.13
2017-10-09T00:39:08.821Z,1.30
2017-10-09T00:41:37.261Z,3.27
2017-10-09T00:44:06.514Z,0.93
2017-10-09T00:46:34.965Z,1.20
2017-10-09T00:49:03.397Z,5.70
2017-10-09T00:51:31.954Z,2.10
2017-10-09T00:54:00.379Z,1.50
2017-10-09T00:56:28.912Z,4.13
2017-10-09T00:58:57.393Z,0.70
2017-10-09T01:01:25.837Z,0.83
2017-10-09T01:03:55.076Z,2.40
2017-10-09T01:06:23.530Z,0.60
2017-10-09T01:08:52.721Z,0.83
2017-10-09T01:11:21.937Z,0.80
2017-10-09T01:13:50.370Z,0.80
2017-10-09T01:16:18.829Z,1.67
2017-10-09T01:18:47.262Z,8.53
2017-10-09T01:21:16.476Z,2.00
2017-10-09T01:23:45.696Z,1.80
2017-10-09T01:26:14.185Z,11.00
2017-10-09T01:28:42.645Z,1.20
2017-10-09T01:31:11.077Z,0.90
2017-10-09T01:33:39.524Z,1.70
2017-10-09T01:36:07.952Z,3.20
2017-10-09T01:38:36.489Z,3.87
2017-10-09T01:41:04.968Z,1.40
2017-10-09T01:43:33.417Z,0.77
2017-10-09T01:46:02.617Z,2.50
2017-10-09T01:48:31.837Z,1.93
2017-10-09T01:51:00.265Z,1.07
2017-10-09T01:53:28.723Z,8.93
2017-10-09T01:55:57.162Z,1.10
2017-10-09T01:58:26.384Z,1.60
2017-10-09T02:00:54.809Z,1.80
2017-10-09T02:03:23.262Z,1.60
2017-10-09T02:05:51.693Z,2.20
2017-10-09T02:08:20.909Z,2.10
2017-10-09T02:10:50.105Z,0.80
2017-10-09T02:13:19.332Z,4.80
2017-10-09T02:15:47.758Z,2.30
2017-10-09T02:18:16.212Z,1.20
2017-10-09T02:20:44.641Z,2.40
2017-10-09T02:23:13.843Z,1.53
2017-10-09T02:25:43.076Z,3.43
2017-10-09T02:28:11.561Z,3.63
2017-10-09T02:30:40.026Z,1.00
2017-10-09T02:33:08.457Z,1.50
2017-10-09T02:35:36.911Z,3.50
2017-10-09T02:38:05.384Z,8.93
2017-10-09T02:40:33.832Z,1.23
2017-10-09T02:43:03.073Z,6.10
2017-10-09T02:45:31.549Z,1.67
2017-10-09T02:48:00.034Z,7.10
2017-10-09T02:50:28.484Z,2.53
2017-10-09T02:52:57.713Z,1.60
2017-10-09T02:55:26.201Z,0.97
2017-10-09T02:57:54.677Z,1.53
2017-10-09T03:00:23.244Z,5.80
2017-10-09T03:02:51.744Z,1.33
2017-10-09T03:05:20.224Z,7.13
2017-10-09T03:07:48.714Z,6.33
2017-10-09T03:10:17.140Z,1.67
2017-10-09T03:12:45.672Z,5.33
2017-10-09T03:15:14.098Z,4.30
2017-10-09T03:17:42.644Z,1.10
2017-10-09T03:20:11.077Z,2.23
2017-10-09T03:26:05.877Z,7.60
2017-10-09T03:28:36.232Z,7.33
2017-10-09T03:31:05.429Z,4.60
2017-10-09T03:33:34.663Z,1.87
2017-10-09T03:36:03.089Z,2.40
2017-10-09T03:38:31.534Z,2.80
2017-10-09T03:41:00.013Z,2.10
2017-10-09T03:43:28.476Z,4.33
2017-10-09T03:45:56.904Z,1.53
2017-10-09T03:48:25.356Z,4.70
2017-10-09T03:50:53.784Z,11.20
2017-10-09T03:53:22.241Z,11.50
2017-10-09T03:55:50.669Z,2.63
2017-10-09T03:58:19.884Z,4.07
2017-10-09T04:00:48.312Z,1.53
2017-10-09T04:03:16.766Z,13.50
2017-10-09T04:05:45.192Z,5.67
2017-10-09T04:08:13.662Z,1.67
2017-10-09T04:10:42.108Z,2.20
2017-10-09T04:13:10.600Z,1.27
2017-10-09T04:15:39.026Z,5.87
2017-10-09T04:18:07.462Z,4.43
2017-10-09T04:20:35.918Z,1.07
2017-10-09T04:23:04.349Z,12.50
2017-10-09T04:25:32.897Z,1.37
2017-10-09T04:28:01.377Z,3.03
2017-10-09T04:30:29.818Z,3.10
2017-10-09T04:32:59.014Z,4.77
2017-10-09T04:35:28.229Z,2.03
2017-10-09T04:37:57.456Z,1.87
2017-10-09T04:40:25.928Z,1.83
2017-10-09T04:42:54.356Z,3.47
2017-10-09T04:45:22.802Z,3.90
2017-10-09T04:47:51.229Z,1.43
2017-10-09T04:50:19.764Z,4.70
2017-10-09T04:52:48.188Z,1.60
2017-10-09T04:55:16.639Z,2.50
2017-10-09T04:57:45.091Z,1.63
2017-10-09T05:00:13.592Z,1.60
2017-10-09T05:02:42.021Z,4.30
2017-10-09T05:05:10.558Z,2.50
2017-10-09T05:07:38.985Z,8.33
2017-10-09T05:10:07.412Z,8.63
2017-10-09T05:12:35.868Z,5.93
2017-10-09T05:15:05.054Z,2.10
2017-10-09T05:17:34.284Z,3.97
2017-10-09T05:20:02.724Z,1.80
2017-10-09T05:22:31.364Z,5.83
2017-10-09T05:24:59.848Z,2.90
2017-10-09T05:27:28.328Z,2.97
2017-10-09T05:29:56.753Z,2.50
2017-10-09T05:32:25.205Z,3.13
2017-10-09T05:34:53.636Z,6.73
2017-10-09T05:37:22.876Z,2.80
2017-10-09T05:39:51.357Z,2.00
2017-10-09T05:42:19.805Z,5.70
2017-10-09T05:44:49.000Z,3.40
2017-10-09T05:47:18.220Z,2.40
2017-10-09T05:49:46.649Z,3.17
2017-10-09T05:52:15.196Z,4.50
2017-10-09T05:54:43.622Z,3.10
2017-10-09T05:57:12.174Z,10.13
2017-10-09T05:59:40.638Z,5.97
2017-10-09T06:02:09.088Z,4.00
2017-10-09T06:04:38.333Z,6.80
2017-10-09T06:07:06.756Z,3.63
2017-10-09T06:09:35.203Z,1.87
2017-10-09T06:12:03.677Z,6.30
2017-10-09T06:14:32.120Z,2.00
2017-10-09T06:17:01.358Z,2.13
2017-10-09T06:19:29.806Z,4.40
2017-10-09T06:21:58.992Z,2.83
2017-10-09T06:24:28.236Z,3.43
2017-10-09T06:26:56.716Z,5.03
2017-10-09T06:29:25.161Z,4.50
2017-10-09T06:31:53.681Z,4.23
2017-10-09T06:34:22.177Z,2.10
2017-10-09T06:36:50.607Z,6.23
2017-10-09T06:39:19.824Z,2.10
2017-10-09T06:41:49.046Z,5.03
2017-10-09T06:44:17.494Z,2.30
2017-10-09T06:46:46.724Z,1.93
2017-10-09T06:49:15.171Z,3.37
2017-10-09T06:51:44.409Z,5.70
2017-10-09T06:54:12.833Z,2.23
2017-10-09T06:56:41.285Z,2.90
2017-10-09T06:59:09.713Z,4.93
2017-10-09T07:01:38.952Z,2.40
2017-10-09T07:04:07.376Z,7.60
2017-10-09T07:06:35.828Z,2.83
2017-10-09T07:09:04.253Z,2.03
2017-10-09T07:11:32.701Z,1.57
2017-10-09T07:14:01.128Z,3.60
2017-10-09T07:16:30.341Z,3.70
2017-10-09T07:18:58.837Z,4.63
2017-10-09T07:21:27.288Z,1.50
2017-10-09T07:23:57.002Z,2.23
2017-10-09T07:26:26.509Z,3.17
2017-10-09T07:28:55.736Z,4.60
2017-10-09T07:31:24.231Z,4.23
2017-10-09T07:33:52.701Z,8.13
2017-10-09T07:36:21.183Z,3.77
2017-10-09T07:38:49.671Z,6.07
2017-10-09T07:41:18.161Z,4.40
2017-10-09T07:43:46.641Z,2.93
2017-10-09T07:46:15.068Z,2.87
2017-10-09T07:48:43.520Z,4.00
2017-10-09T07:51:11.945Z,2.10
2017-10-09T07:53:41.160Z,1.87
2017-10-09T07:56:09.588Z,3.17
2017-10-09T07:58:38.137Z,1.87
2017-10-09T08:01:06.568Z,11.87
2017-10-09T08:03:35.021Z,1.47
2017-10-09T08:06:03.449Z,3.13
2017-10-09T08:08:32.664Z,3.20
2017-10-09T08:11:01.093Z,2.43
2017-10-09T08:13:29.542Z,3.17
2017-10-09T08:15:58.030Z,2.97
2017-10-09T08:18:26.465Z,1.37
2017-10-09T08:20:55.811Z,3.47
2017-10-09T08:23:24.240Z,1.33
2017-10-09T08:25:52.696Z,2.23
2017-10-09T08:28:21.125Z,3.83
2017-10-09T08:30:50.352Z,4.53
2017-10-09T08:33:18.832Z,0.87
2017-10-09T08:35:47.289Z,2.53
2017-10-09T08:38:16.484Z,1.83
2017-10-09T08:40:45.704Z,1.63
2017-10-09T08:43:14.201Z,0.90
2017-10-09T08:45:42.669Z,1.47
2017-10-09T08:48:11.106Z,3.47
2017-10-09T08:50:39.565Z,8.03
2017-10-09T08:53:07.997Z,4.73
2017-10-09T08:55:37.225Z,2.20
2017-10-09T08:58:05.673Z,11.47
2017-10-09T09:00:34.873Z,6.10
2017-10-09T09:03:04.200Z,7.47
2017-10-09T09:05:32.637Z,9.00
2017-10-09T09:08:01.894Z,9.07
2017-10-09T09:10:30.332Z,3.00
2017-10-09T09:12:59.568Z,6.10
2017-10-09T09:15:28.044Z,4.20
2017-10-09T09:17:56.528Z,8.70
2017-10-09T09:20:24.962Z,7.13
2017-10-09T09:22:53.433Z,3.33
2017-10-09T09:25:21.976Z,7.33
2017-10-09T09:27:50.459Z,1.87
2017-10-09T09:30:18.940Z,1.43
2017-10-09T09:32:47.392Z,4.50
2017-10-09T09:35:16.584Z,3.40
2017-10-09T09:37:45.805Z,1.80
2017-10-09T09:40:14.306Z,1.57
2017-10-09T09:42:42.772Z,5.37
2017-10-09T09:45:11.268Z,3.03
2017-10-09T09:47:39.696Z,2.73
2017-10-09T09:50:08.921Z,3.03
2017-10-09T09:52:38.144Z,2.20
2017-10-09T09:55:06.633Z,1.60
2017-10-09T09:57:35.077Z,6.30
2017-10-09T10:00:04.301Z,3.43
2017-10-09T10:02:32.732Z,4.73
2017-10-09T10:05:01.220Z,5.80
2017-10-09T10:07:29.760Z,4.47
2017-10-09T10:09:58.229Z,3.93
2017-10-09T10:12:26.661Z,2.60
2017-10-09T10:14:55.173Z,1.73
2017-10-09T10:17:24.411Z,1.37
2017-10-09T10:19:52.869Z,2.40
2017-10-09T10:22:21.301Z,4.63
2017-10-09T10:24:49.844Z,1.53
2017-10-09T10:27:18.277Z,1.30
2017-10-09T10:29:46.736Z,2.37
2017-10-09T10:32:15.168Z,1.33
2017-10-09T10:34:44.488Z,1.37
2017-10-09T10:37:12.921Z,1.80
2017-10-09T10:39:41.377Z,3.43
2017-10-09T10:42:09.805Z,7.53
2017-10-09T10:44:39.005Z,7.93
2017-10-09T10:47:08.336Z,1.13
2017-10-09T10:49:36.768Z,14.63
2017-10-09T10:52:05.305Z,1.90
2017-10-09T10:54:33.742Z,3.07
2017-10-09T10:57:02.968Z,1.23
2017-10-09T10:59:31.475Z,4.10
2017-10-09T11:01:59.937Z,4.20
2017-10-09T11:04:28.368Z,2.60
2017-10-09T11:06:56.825Z,3.93
2017-10-09T11:09:25.261Z,0.90
2017-10-09T11:11:54.648Z,1.80
2017-10-09T11:14:23.172Z,1.70
2017-10-09T11:16:51.624Z,2.10
2017-10-09T11:19:20.820Z,3.90
2017-10-09T11:21:50.044Z,2.60
2017-10-09T11:24:18.479Z,5.63
2017-10-09T11:26:47.021Z,7.33
2017-10-09T11:29:15.506Z,4.27
2017-10-09T11:31:43.961Z,2.13
2017-10-09T11:34:13.186Z,2.20
2017-10-09T11:36:41.664Z,2.93
2017-10-09T11:39:10.116Z,7.90
2017-10-09T11:41:39.316Z,2.33
2017-10-09T11:44:08.649Z,2.13
2017-10-09T11:46:37.128Z,1.07
2017-10-09T11:49:05.622Z,15.70
2017-10-09T11:51:34.052Z,1.30
2017-10-09T11:54:03.276Z,3.70
2017-10-09T11:56:31.708Z,6.47
2017-10-09T11:59:00.169Z,1.53
2017-10-09T12:01:28.596Z,9.60
2017-10-09T12:03:57.801Z,4.67
2017-10-09T12:06:27.028Z,2.97
2017-10-09T12:08:55.456Z,3.60
2017-10-09T12:11:23.905Z,1.83
2017-10-09T12:13:52.358Z,1.63
2017-10-09T12:16:20.859Z,4.97
2017-10-09T12:18:49.346Z,5.90
2017-10-09T12:21:17.809Z,4.63
2017-10-09T12:23:46.236Z,4.47
2017-10-09T12:26:14.695Z,2.20
2017-10-09T12:28:43.174Z,2.87
2017-10-09T12:31:11.633Z,4.00
2017-10-09T12:33:40.068Z,1.67
2017-10-09T12:36:08.521Z,2.80
2017-10-09T12:38:36.953Z,5.90
2017-10-09T12:41:06.197Z,4.00
2017-10-09T12:43:34.630Z,2.80
2017-10-09T12:46:03.861Z,6.53
2017-10-09T12:48:32.294Z,2.93
2017-10-09T12:51:01.489Z,5.23
2017-10-09T12:53:30.033Z,8.97
2017-10-09T12:55:58.473Z,5.10
2017-10-09T12:58:26.928Z,2.77
2017-10-09T13:00:55.362Z,6.83
2017-10-09T13:03:23.828Z,1.47
2017-10-09T13:05:53.030Z,4.40
2017-10-09T13:08:22.367Z,2.80
2017-10-09T13:10:50.812Z,6.90
2017-10-09T13:13:20.043Z,7.77
2017-10-09T13:15:48.473Z,1.23
2017-10-09T13:18:16.991Z,2.67
2017-10-09T13:20:45.494Z,4.57
2017-10-09T13:23:13.961Z,1.83
2017-10-09T13:25:42.392Z,1.23
2017-10-09T13:28:10.820Z,1.10
2017-10-09T13:30:39.319Z,6.77
2017-10-09T13:33:07.764Z,3.60
2017-10-09T13:35:36.985Z,3.23
2017-10-09T13:38:05.413Z,1.53
2017-10-09T13:40:33.867Z,1.73
2017-10-09T13:43:02.311Z,8.60
2017-10-09T13:45:31.645Z,2.60
2017-10-09T13:48:00.097Z,3.90
2017-10-09T13:50:29.326Z,6.07
2017-10-09T13:52:57.815Z,5.10
2017-10-09T13:55:26.277Z,1.83
2017-10-09T13:57:54.713Z,10.00
2017-10-09T14:00:23.169Z,7.40
2017-10-09T14:02:51.608Z,2.43
2017-10-09T14:05:20.932Z,4.00
2017-10-09T14:07:49.357Z,1.70
2017-10-09T14:10:17.785Z,4.07
2017-10-09T14:12:46.236Z,2.57
2017-10-09T14:15:15.436Z,2.10
2017-10-09T14:17:44.664Z,1.20
2017-10-09T14:20:13.096Z,1.47
2017-10-09T14:22:41.553Z,0.73
2017-10-09T14:25:09.981Z,3.37
2017-10-09T14:27:39.204Z,0.63
2017-10-09T14:30:07.637Z,1.47
2017-10-09T14:40:02.109Z,4.07
2017-10-09T14:42:31.333Z,4.40
2017-10-09T14:44:59.821Z,3.00
2017-10-09T14:47:28.311Z,4.53
2017-10-09T14:49:56.749Z,5.90
2017-10-09T14:52:25.953Z,8.60
2017-10-09T14:54:55.177Z,2.50
2017-10-09T14:57:23.613Z,4.20
2017-10-09T14:59:52.077Z,5.80
2017-10-09T15:02:20.512Z,5.27
2017-10-09T15:04:48.974Z,0.67
2017-10-09T15:07:18.216Z,4.20
2017-10-09T15:09:46.673Z,1.93
2017-10-09T15:12:15.174Z,7.00
2017-10-09T15:14:43.636Z,2.53
2017-10-09T15:17:12.077Z,4.23
2017-10-09T15:19:40.543Z,3.30
2017-10-09T15:22:08.981Z,2.70
2017-10-09T15:24:37.477Z,9.03
2017-10-09T15:27:05.964Z,2.80
2017-10-09T15:29:34.408Z,10.23
2017-10-09T15:32:03.638Z,5.80
2017-10-09T15:34:32.077Z,1.83
2017-10-09T15:37:00.605Z,1.83
2017-10-09T15:39:29.090Z,4.30
2017-10-09T15:41:57.553Z,1.43
2017-10-09T15:44:25.985Z,4.57
2017-10-09T15:46:54.440Z,2.40
2017-10-09T15:49:22.913Z,3.50
2017-10-09T15:51:51.508Z,4.60
2017-10-09T15:54:19.982Z,5.53
2017-10-09T15:56:48.465Z,2.83
2017-10-09T15:59:16.912Z,13.83
2017-10-09T16:01:46.140Z,3.73
2017-10-09T16:04:14.581Z,20.67
2017-10-09T16:06:43.790Z,29.57
2017-10-09T16:09:13.019Z,33.50
2017-10-09T16:11:41.473Z,47.60
2017-10-09T16:14:10.698Z,8.40
2017-10-09T16:16:39.141Z,33.13
2017-10-09T16:19:07.605Z,5.90
2017-10-09T16:21:36.041Z,31.07
2017-10-09T16:24:04.505Z,15.20
2017-10-09T16:26:33.731Z,12.00
2017-10-09T16:29:02.215Z,17.80
2017-10-09T16:31:30.649Z,3.83
2017-10-09T16:33:59.993Z,73.47
2017-10-09T16:36:28.432Z,43.87
2017-10-09T16:38:56.890Z,20.03
2017-10-09T16:41:25.323Z,8.00
2017-10-09T16:43:53.781Z,3.53
2017-10-09T16:46:23.013Z,5.00
2017-10-09T16:48:51.503Z,5.00
2017-10-09T16:51:19.964Z,8.53
2017-10-09T16:53:48.397Z,3.00
2017-10-09T16:56:16.956Z,3.20
2017-10-09T16:58:45.428Z,2.33
2017-10-09T17:01:13.913Z,2.60
2017-10-09T17:03:42.349Z,2.73
2017-10-09T17:06:11.573Z,3.50
2017-10-09T17:08:40.074Z,3.33
2017-10-09T17:11:08.560Z,3.00
2017-10-09T17:13:37.002Z,4.63
2017-10-09T17:16:06.221Z,5.90
2017-10-09T17:18:34.717Z,7.40
2017-10-09T17:21:03.209Z,7.67
2017-10-09T17:23:31.681Z,14.13
2017-10-09T17:26:00.161Z,5.27
2017-10-09T17:28:28.597Z,14.50
2017-10-09T17:30:57.205Z,5.13
2017-10-09T17:33:26.405Z,11.50
2017-10-09T17:35:55.621Z,4.50
2017-10-09T17:38:24.045Z,8.43
2017-10-09T17:40:52.590Z,9.73
2017-10-09T17:43:21.026Z,13.43
2017-10-09T17:45:49.462Z,16.03
2017-10-09T17:48:17.940Z,13.73
2017-10-09T17:50:46.533Z,14.40
2017-10-09T17:53:14.985Z,7.33
2017-10-09T17:55:43.413Z,8.93
2017-10-09T17:58:11.970Z,5.53
2017-10-09T18:00:40.458Z,4.30
2017-10-09T18:03:08.913Z,8.83
2017-10-09T18:05:37.350Z,9.53
2017-10-09T18:08:07.310Z,9.93
2017-10-09T18:10:35.814Z,10.93
2017-10-09T18:13:04.290Z,8.37
2017-10-09T18:15:32.721Z,16.60
2017-10-09T18:18:01.257Z,19.10
2017-10-09T18:20:29.688Z,14.30
2017-10-09T18:22:58.121Z,17.17
2017-10-09T18:25:26.585Z,17.37
2017-10-09T18:27:55.016Z,11.37
2017-10-09T18:30:23.537Z,11.37
2017-10-09T18:32:52.729Z,19.23
2017-10-09T18:35:22.580Z,4.17
2017-10-09T18:37:51.004Z,8.90
2017-10-09T18:40:19.717Z,4.20
2017-10-09T18:42:48.957Z,11.83
2017-10-09T18:45:17.409Z,8.00
2017-10-09T18:47:45.839Z,8.37
2017-10-09T18:50:14.296Z,8.57
2017-10-09T18:52:42.780Z,12.00
2017-10-09T18:55:11.238Z,9.97
2017-10-09T18:57:39.675Z,9.23
2017-10-09T19:00:08.141Z,7.63
2017-10-09T19:02:36.574Z,5.87
2017-10-09T19:05:05.789Z,4.60
2017-10-09T19:07:34.221Z,9.17
2017-10-09T19:10:02.680Z,5.23
2017-10-09T19:12:31.110Z,8.67
2017-10-09T19:15:00.333Z,12.10
2017-10-09T19:17:28.761Z,9.80
2017-10-09T19:19:57.217Z,5.20
2017-10-09T19:22:25.649Z,6.73
2017-10-09T19:24:54.846Z,5.37
2017-10-09T19:27:24.061Z,11.70
2017-10-09T19:29:52.493Z,14.87
2017-10-09T19:32:20.947Z,6.97
2017-10-09T19:34:49.436Z,6.77
2017-10-09T19:37:18.001Z,16.23
2017-10-09T19:39:46.429Z,9.77
2017-10-09T19:42:15.642Z,14.47
2017-10-09T19:44:44.081Z,7.50
2017-10-09T19:47:12.890Z,11.40
2017-10-09T19:49:41.320Z,7.67
2017-10-09T19:52:09.817Z,7.70
2017-10-09T19:54:38.416Z,10.17
2017-10-09T19:57:06.870Z,16.30
2017-10-09T19:59:35.301Z,12.30
2017-10-09T20:02:03.856Z,7.33
2017-10-09T20:04:32.297Z,14.87
2017-10-09T20:07:01.502Z,10.90
2017-10-09T20:09:30.725Z,22.13
2017-10-09T20:11:59.160Z,61.20
2017-10-09T20:14:28.385Z,75.30
2017-10-09T20:16:57.589Z,47.50
2017-10-09T20:19:26.814Z,64.73
2017-10-09T20:21:55.261Z,34.83
2017-10-09T20:24:24.593Z,38.23
2017-10-09T20:26:53.024Z,21.80
2017-10-09T20:29:22.246Z,26.93
2017-10-09T20:31:51.479Z,26.10
2017-10-09T20:34:20.790Z,24.90
2017-10-09T20:36:49.237Z,20.40
2017-10-09T20:39:17.736Z,19.63
2017-10-09T20:41:46.165Z,14.37
2017-10-09T20:44:15.417Z,13.20
2017-10-09T20:46:43.905Z,11.77
2017-10-09T20:49:12.351Z,21.30
2017-10-09T20:51:41.582Z,19.67
2017-10-09T20:54:10.017Z,20.53
2017-10-09T20:56:38.469Z,9.63
2017-10-09T20:59:06.939Z,11.70
2017-10-09T21:01:35.398Z,19.43
2017-10-09T21:04:03.824Z,14.30
2017-10-09T21:06:32.281Z,12.67
2017-10-09T21:09:00.714Z,23.67
2017-10-09T21:11:29.933Z,15.10
2017-10-09T21:13:58.366Z,10.80
2017-10-09T21:16:26.913Z,8.33
2017-10-09T21:18:55.402Z,12.03
2017-10-09T21:21:23.884Z,11.67
2017-10-09T21:23:52.372Z,12.67
2017-10-09T21:26:20.824Z,8.77
2017-10-09T21:28:50.016Z,12.50
2017-10-09T21:31:19.204Z,14.17
2017-10-09T21:33:48.421Z,11.90
2017-10-09T21:36:16.921Z,14.00
2017-10-09T21:38:45.405Z,13.50
2017-10-09T21:41:13.826Z,14.63
2017-10-09T21:43:42.365Z,15.10
2017-10-09T21:46:10.848Z,8.73
2017-10-09T21:48:39.297Z,20.07
2017-10-09T21:51:08.488Z,12.23
2017-10-09T21:53:37.118Z,19.10
2017-10-09T21:56:05.554Z,16.13
2017-10-09T21:58:34.077Z,22.70
2017-10-09T22:01:02.561Z,18.17
2017-10-09T22:03:31.004Z,17.93
2017-10-09T22:06:00.246Z,27.67
2017-10-09T22:08:28.673Z,12.97
2017-10-09T22:10:57.897Z,18.73
2017-10-09T22:13:27.093Z,27.73
2017-10-09T22:15:56.429Z,21.53
2017-10-09T22:18:24.874Z,18.37
2017-10-09T22:20:54.104Z,18.97
2017-10-09T22:23:22.529Z,34.90
2017-10-09T22:25:51.757Z,24.60
2017-10-09T22:28:20.993Z,33.80
2017-10-09T22:30:49.453Z,34.13
2017-10-09T22:33:17.949Z,31.57
2017-10-09T22:35:46.406Z,24.43
2017-10-09T22:38:15.605Z,32.50
2017-10-09T22:40:44.826Z,22.27
2017-10-09T22:43:13.261Z,30.03
2017-10-09T22:45:42.472Z,26.77
2017-10-09T22:48:11.672Z,19.50
2017-10-09T22:50:40.897Z,29.70
2017-10-09T22:53:09.324Z,39.33
2017-10-09T22:55:37.756Z,33.13
2017-10-09T22:58:06.209Z,25.63
2017-10-09T23:00:34.737Z,31.17
2017-10-09T23:03:03.205Z,30.00
2017-10-09T23:05:31.712Z,29.77
2017-10-09T23:08:00.169Z,34.80
2017-10-09T23:10:28.600Z,35.33
2017-10-09T23:12:57.057Z,35.97
2017-10-09T23:15:25.530Z,36.33
2017-10-09T23:17:53.993Z,37.10
2017-10-09T23:20:22.421Z,53.23
2017-10-09T23:22:50.881Z,38.00
2017-10-09T23:25:19.357Z,37.30
2017-10-09T23:27:47.821Z,42.50
2017-10-09T23:30:16.253Z,35.93
2017-10-09T23:32:44.713Z,37.13
2017-10-09T23:35:13.148Z,38.77
2017-10-09T23:37:42.384Z,45.60
2017-10-09T23:40:10.849Z,40.07
2017-10-09T23:42:39.342Z,32.40
2017-10-09T23:45:07.791Z,40.20
2017-10-09T23:47:36.999Z,32.93
2017-10-09T23:50:05.460Z,39.47
2017-10-09T23:52:33.991Z,37.70
2017-10-09T23:55:02.457Z,37.40
2017-10-09T23:57:30.893Z,36.80
